createdAt,value
2022-11-29T00:01:33.935Z,93.25
2022-11-29T00:04:02.296Z,92.88
2022-11-29T00:06:31.891Z,92.75
2022-11-29T00:09:03.379Z,92.49
2022-11-29T00:11:53.008Z,92.33
2022-11-29T00:14:21.596Z,92.37
2022-11-29T00:16:52.762Z,92.28
2022-11-29T00:19:21.043Z,92.37
2022-11-29T00:21:49.142Z,92.40
2022-11-29T00:24:20.888Z,92.43
2022-11-29T00:26:48.895Z,92.51
2022-11-29T00:29:16.673Z,92.41
2022-11-29T00:31:44.743Z,92.37
2022-11-29T00:34:13.222Z,92.37
2022-11-29T00:36:41.141Z,92.53
2022-11-29T00:39:11.577Z,92.65
2022-11-29T00:41:41.171Z,92.53
2022-11-29T00:44:09.823Z,92.53
2022-11-29T00:46:38.656Z,92.63
2022-11-29T00:49:06.974Z,92.30
2022-11-29T00:51:34.824Z,92.17
2022-11-29T00:54:02.688Z,92.28
2022-11-29T00:56:30.544Z,92.32
2022-11-29T00:58:59.661Z,92.24
2022-11-29T01:01:27.485Z,92.16
2022-11-29T01:03:55.292Z,92.08
2022-11-29T01:06:23.023Z,92.42
2022-11-29T01:08:50.776Z,92.62
2022-11-29T01:11:21.784Z,92.50
2022-11-29T01:13:50.304Z,92.15
2022-11-29T01:16:19.445Z,92.16
2022-11-29T01:18:47.426Z,91.95
2022-11-29T01:21:17.232Z,92.14
2022-11-29T01:23:45.741Z,92.15
2022-11-29T01:26:15.273Z,92.06
2022-11-29T01:28:43.913Z,92.06
2022-11-29T01:31:15.165Z,92.20
2022-11-29T01:33:44.457Z,92.62
2022-11-29T01:36:14.048Z,92.76
2022-11-29T01:38:43.490Z,92.90
2022-11-29T01:41:15.530Z,92.89
2022-11-29T01:43:57.882Z,92.81
2022-11-29T01:46:27.076Z,92.88
2022-11-29T01:49:01.279Z,92.59
2022-11-29T01:51:30.123Z,92.62
2022-11-29T01:53:58.404Z,92.85
2022-11-29T01:56:26.922Z,92.91
2022-11-29T01:58:54.788Z,93.04
2022-11-29T02:01:22.790Z,92.84
2022-11-29T02:03:50.773Z,92.97
2022-11-29T02:06:19.887Z,93.01
2022-11-29T02:08:47.635Z,93.08
2022-11-29T02:11:43.129Z,92.92
2022-11-29T02:14:23.625Z,92.97
2022-11-29T02:16:59.023Z,92.91
2022-11-29T02:19:49.892Z,92.99
2022-11-29T02:22:25.512Z,93.00
2022-11-29T02:25:11.752Z,92.73
2022-11-29T02:28:11.139Z,92.77
2022-11-29T02:31:02.194Z,93.21
2022-11-29T02:34:07.512Z,94.83
2022-11-29T02:36:59.160Z,96.76
2022-11-29T02:39:50.986Z,94.69
2022-11-29T02:42:54.392Z,93.89
2022-11-29T02:45:42.752Z,91.42
2022-11-29T02:48:24.491Z,92.26
2022-11-29T02:50:59.392Z,93.34
2022-11-29T02:53:33.965Z,92.52
2022-11-29T02:56:12.174Z,91.96
2022-11-29T02:58:51.373Z,92.05
2022-11-29T03:01:25.443Z,93.19
2022-11-29T03:04:01.067Z,92.84
2022-11-29T03:06:37.694Z,88.17
2022-11-29T03:09:12.659Z,89.98
2022-11-29T03:11:48.711Z,87.83
2022-11-29T03:14:24.839Z,87.74
2022-11-29T03:17:04.497Z,88.19
2022-11-29T03:19:47.425Z,86.13
2022-11-29T03:22:27.057Z,83.03
2022-11-29T03:25:00.535Z,85.98
2022-11-29T03:27:37.369Z,84.62
2022-11-29T03:30:12.723Z,85.69
2022-11-29T03:32:49.499Z,83.61
2022-11-29T03:35:23.291Z,86.37
2022-11-29T03:37:59.690Z,84.61
2022-11-29T03:40:32.413Z,84.26
2022-11-29T03:43:05.144Z,83.89
2022-11-29T03:45:39.709Z,85.79
2022-11-29T03:48:11.717Z,83.92
2022-11-29T03:50:43.461Z,85.44
2022-11-29T03:53:19.165Z,85.89
2022-11-29T03:55:54.567Z,85.17
2022-11-29T03:58:34.709Z,84.88
2022-11-29T04:01:34.751Z,84.51
2022-11-29T04:04:41.316Z,84.50
2022-11-29T04:07:26.675Z,84.18
2022-11-29T04:10:10.670Z,81.64
2022-11-29T04:13:14.035Z,83.71
2022-11-29T04:16:07.553Z,82.89
2022-11-29T04:19:03.945Z,83.47
2022-11-29T04:21:34.631Z,84.16
2022-11-29T04:24:34.138Z,83.56
2022-11-29T04:27:35.747Z,82.70
2022-11-29T04:30:14.814Z,82.30
2022-11-29T04:33:18.076Z,83.02
2022-11-29T04:36:07.583Z,82.28
2022-11-29T04:38:54.413Z,83.90
2022-11-29T04:41:46.548Z,83.71
2022-11-29T04:44:51.579Z,81.34
2022-11-29T04:47:38.826Z,82.43
2022-11-29T04:50:21.448Z,82.82
2022-11-29T04:53:11.039Z,83.17
2022-11-29T04:55:46.608Z,82.93
2022-11-29T04:58:22.231Z,83.65
2022-11-29T05:01:00.716Z,84.76
2022-11-29T05:03:39.652Z,82.67
2022-11-29T05:06:24.445Z,84.63
2022-11-29T05:09:00.645Z,83.81
2022-11-29T05:11:38.963Z,83.60
2022-11-29T05:14:16.223Z,85.06
2022-11-29T05:16:50.041Z,85.02
2022-11-29T05:19:52.776Z,84.93
2022-11-29T05:22:30.716Z,83.97
2022-11-29T05:25:13.861Z,83.87
2022-11-29T05:27:46.236Z,84.80
2022-11-29T05:30:15.918Z,83.75
2022-11-29T05:32:56.573Z,84.80
2022-11-29T05:35:35.543Z,84.55
2022-11-29T05:38:13.432Z,83.71
2022-11-29T05:40:51.243Z,83.39
2022-11-29T05:43:48.616Z,83.70
2022-11-29T05:46:23.006Z,82.78
2022-11-29T05:49:00.487Z,83.01
2022-11-29T05:51:38.265Z,83.56
2022-11-29T05:54:15.633Z,82.94
2022-11-29T05:56:51.708Z,82.96
2022-11-29T05:59:23.208Z,83.17
2022-11-29T06:01:58.942Z,83.62
2022-11-29T06:04:41.087Z,84.04
2022-11-29T06:07:17.125Z,83.90
2022-11-29T06:09:50.073Z,83.38
2022-11-29T06:12:21.731Z,83.49
2022-11-29T06:15:17.439Z,84.32
2022-11-29T06:18:09.495Z,83.38
2022-11-29T06:21:11.178Z,83.71
2022-11-29T06:23:53.579Z,82.95
2022-11-29T06:26:34.994Z,82.92
2022-11-29T06:29:19.061Z,83.35
2022-11-29T06:31:51.309Z,83.65
2022-11-29T06:34:30.717Z,83.86
2022-11-29T06:37:06.122Z,84.04
2022-11-29T06:39:34.541Z,83.52
2022-11-29T06:42:02.367Z,83.82
2022-11-29T06:44:30.671Z,83.05
2022-11-29T06:47:05.086Z,82.58
2022-11-29T06:49:39.969Z,82.92
2022-11-29T06:52:20.202Z,83.59
2022-11-29T06:55:07.639Z,82.69
2022-11-29T06:57:47.188Z,84.25
2022-11-29T07:00:20.595Z,84.27
2022-11-29T07:03:16.217Z,82.60
2022-11-29T07:05:44.649Z,84.42
2022-11-29T07:08:18.651Z,82.94
2022-11-29T07:10:49.674Z,83.20
2022-11-29T07:13:19.126Z,83.51
2022-11-29T07:15:57.484Z,82.94
2022-11-29T07:18:33.200Z,84.40
2022-11-29T07:21:11.662Z,84.09
2022-11-29T07:23:48.366Z,83.96
2022-11-29T07:26:24.504Z,83.23
2022-11-29T07:29:03.805Z,82.75
2022-11-29T07:31:37.130Z,82.17
2022-11-29T07:34:15.069Z,83.38
2022-11-29T07:36:51.622Z,82.26
2022-11-29T07:39:30.113Z,82.39
2022-11-29T07:42:06.721Z,81.48
2022-11-29T07:44:39.713Z,81.64
2022-11-29T07:47:09.308Z,83.05
2022-11-29T07:49:37.114Z,82.47
2022-11-29T07:52:04.875Z,82.16
2022-11-29T07:54:34.030Z,82.99
2022-11-29T07:57:01.815Z,82.13
2022-11-29T07:59:29.543Z,82.48
2022-11-29T08:01:57.380Z,82.51
2022-11-29T08:04:25.235Z,82.55
2022-11-29T08:06:53.021Z,82.64
2022-11-29T08:09:21.078Z,82.85
2022-11-29T08:11:50.172Z,82.58
2022-11-29T08:14:17.989Z,82.74
2022-11-29T08:16:45.872Z,81.27
2022-11-29T08:19:13.745Z,82.02
2022-11-29T08:21:46.813Z,83.05
2022-11-29T08:24:14.637Z,82.93
2022-11-29T08:26:42.478Z,84.21
2022-11-29T08:29:11.644Z,83.80
2022-11-29T08:31:39.493Z,83.76
2022-11-29T08:34:08.246Z,84.76
2022-11-29T08:36:36.022Z,83.79
2022-11-29T08:39:09.125Z,83.71
2022-11-29T08:41:37.667Z,84.30
2022-11-29T08:44:06.033Z,85.76
2022-11-29T08:46:53.153Z,85.62
2022-11-29T08:49:20.943Z,85.40
2022-11-29T08:51:48.737Z,85.28
2022-11-29T08:54:15.570Z,85.51
2022-11-29T08:57:23.649Z,86.12
2022-11-29T08:59:31.136Z,87.59
2022-11-29T09:02:00.449Z,86.57
2022-11-29T09:04:28.252Z,86.31
2022-11-29T09:06:56.014Z,86.59
2022-11-29T09:09:23.797Z,85.98
2022-11-29T09:11:51.831Z,84.40
2022-11-29T09:14:21.941Z,84.69
2022-11-29T09:16:49.772Z,84.13
2022-11-29T09:19:18.984Z,84.10
2022-11-29T09:21:46.782Z,84.22
2022-11-29T09:24:14.688Z,83.81
2022-11-29T09:26:42.675Z,83.41
2022-11-29T09:29:11.909Z,82.99
2022-11-29T09:31:39.895Z,82.47
2022-11-29T09:34:07.892Z,83.38
2022-11-29T09:36:37.052Z,83.22
2022-11-29T09:39:04.954Z,82.85
2022-11-29T09:41:59.315Z,82.60
2022-11-29T09:44:36.932Z,82.69
2022-11-29T09:47:17.517Z,82.37
2022-11-29T09:50:02.124Z,82.62
2022-11-29T09:52:42.170Z,81.93
2022-11-29T09:55:36.286Z,82.67
2022-11-29T09:58:06.891Z,81.84
2022-11-29T10:00:39.222Z,81.33
2022-11-29T10:03:15.369Z,81.57
2022-11-29T10:05:47.630Z,81.96
2022-11-29T10:08:22.356Z,81.62
2022-11-29T10:10:53.519Z,81.66
2022-11-29T10:13:24.304Z,81.11
2022-11-29T10:15:55.789Z,81.13
2022-11-29T10:18:27.042Z,81.30
2022-11-29T10:20:58.554Z,82.71
2022-11-29T10:23:33.926Z,81.56
2022-11-29T10:26:02.078Z,82.17
2022-11-29T10:28:32.013Z,81.48
2022-11-29T10:31:09.576Z,82.04
2022-11-29T10:33:40.693Z,81.65
2022-11-29T10:36:17.192Z,81.06
2022-11-29T10:38:48.547Z,81.12
2022-11-29T10:41:22.182Z,80.75
2022-11-29T10:43:51.944Z,81.22
2022-11-29T10:46:28.218Z,81.90
2022-11-29T10:48:57.065Z,83.34
2022-11-29T10:51:25.409Z,84.04
2022-11-29T10:53:55.564Z,84.41
2022-11-29T10:56:29.412Z,84.64
2022-11-29T10:59:02.960Z,84.82
2022-11-29T11:01:31.688Z,85.13
2022-11-29T11:04:04.248Z,85.33
2022-11-29T11:06:46.031Z,85.64
2022-11-29T11:09:20.869Z,85.78
2022-11-29T11:11:53.748Z,85.66
2022-11-29T11:14:24.926Z,86.01
2022-11-29T11:16:53.935Z,86.02
2022-11-29T11:19:28.376Z,85.79
2022-11-29T11:21:57.022Z,85.40
2022-11-29T11:24:28.874Z,85.54
2022-11-29T11:26:57.397Z,84.79
2022-11-29T11:29:27.519Z,84.63
2022-11-29T11:31:57.939Z,85.41
2022-11-29T11:34:29.539Z,85.13
2022-11-29T11:37:26.141Z,85.34
2022-11-29T11:39:57.390Z,85.42
2022-11-29T11:42:39.252Z,85.78
2022-11-29T11:45:32.802Z,86.20
2022-11-29T11:48:05.101Z,85.62
2022-11-29T11:50:35.835Z,85.46
2022-11-29T11:53:06.563Z,85.40
2022-11-29T11:55:39.244Z,85.82
2022-11-29T11:58:16.165Z,85.40
2022-11-29T12:01:03.380Z,85.51
2022-11-29T12:03:49.171Z,85.16
2022-11-29T12:06:47.293Z,85.00
2022-11-29T12:09:31.765Z,85.46
2022-11-29T12:12:10.380Z,84.82
2022-11-29T12:14:46.029Z,84.34
2022-11-29T12:17:21.620Z,84.19
2022-11-29T12:20:04.305Z,84.41
2022-11-29T12:22:42.662Z,84.51
2022-11-29T12:25:19.432Z,83.90
2022-11-29T12:27:50.010Z,83.89
2022-11-29T12:30:18.193Z,84.75
2022-11-29T12:33:02.530Z,84.40
2022-11-29T12:35:45.726Z,85.09
2022-11-29T12:38:25.650Z,85.12
2022-11-29T12:41:01.983Z,84.93
2022-11-29T12:43:42.705Z,84.43
2022-11-29T12:46:14.849Z,84.82
2022-11-29T12:48:50.863Z,84.81
2022-11-29T12:51:28.848Z,85.53
2022-11-29T12:54:11.847Z,85.40
2022-11-29T12:56:47.627Z,84.40
2022-11-29T12:59:29.495Z,84.76
2022-11-29T13:02:18.517Z,84.76
2022-11-29T13:04:59.382Z,84.28
2022-11-29T13:07:39.327Z,84.57
2022-11-29T13:10:37.394Z,84.75
2022-11-29T13:13:17.680Z,84.73
2022-11-29T13:15:55.614Z,84.65
2022-11-29T13:18:28.475Z,85.33
2022-11-29T13:21:02.422Z,85.56
2022-11-29T13:23:45.753Z,85.39
2022-11-29T13:26:26.593Z,84.99
2022-11-29T13:28:55.530Z,85.21
2022-11-29T13:31:25.782Z,85.34
2022-11-29T13:33:59.574Z,85.22
2022-11-29T13:36:38.560Z,84.93
2022-11-29T13:39:16.820Z,85.08
2022-11-29T13:41:51.965Z,85.06
2022-11-29T13:44:28.920Z,84.89
2022-11-29T13:47:06.531Z,85.59
2022-11-29T13:50:30.094Z,85.59
2022-11-29T13:53:04.913Z,85.74
2022-11-29T13:55:34.157Z,85.62
2022-11-29T13:58:16.780Z,85.73
2022-11-29T14:00:51.403Z,85.41
2022-11-29T14:03:31.165Z,85.14
2022-11-29T14:06:18.422Z,85.33
2022-11-29T14:09:18.539Z,85.47
2022-11-29T14:11:50.134Z,85.32
2022-11-29T14:14:26.867Z,85.15
2022-11-29T14:16:58.922Z,85.59
2022-11-29T14:19:33.369Z,85.37
2022-11-29T14:22:19.879Z,85.86
2022-11-29T14:25:00.171Z,85.65
2022-11-29T14:27:57.798Z,85.61
2022-11-29T14:30:47.385Z,85.89
2022-11-29T14:33:32.917Z,86.01
2022-11-29T14:36:19.805Z,85.95
2022-11-29T14:38:54.874Z,86.29
2022-11-29T14:41:31.940Z,86.39
2022-11-29T14:44:15.287Z,86.78
2022-11-29T14:46:43.761Z,86.64
2022-11-29T14:49:23.032Z,86.70
2022-11-29T14:52:08.875Z,86.67
2022-11-29T14:54:37.883Z,86.91
2022-11-29T14:57:50.869Z,86.79
2022-11-29T15:00:20.418Z,86.93
2022-11-29T15:02:50.728Z,87.44
2022-11-29T15:05:21.530Z,87.49
2022-11-29T15:07:58.148Z,88.12
2022-11-29T15:10:29.993Z,87.93
2022-11-29T15:13:00.635Z,87.55
2022-11-29T15:15:54.326Z,87.95
2022-11-29T15:18:38.710Z,88.11
2022-11-29T15:21:18.863Z,88.14
2022-11-29T15:23:47.985Z,87.98
2022-11-29T15:26:19.265Z,88.27
2022-11-29T15:28:47.134Z,88.54
2022-11-29T15:31:17.263Z,88.23
2022-11-29T15:33:47.023Z,88.69
2022-11-29T15:36:18.931Z,88.48
2022-11-29T15:38:50.335Z,88.41
2022-11-29T15:41:23.686Z,88.73
2022-11-29T15:43:59.052Z,88.62
2022-11-29T15:46:28.849Z,88.74
2022-11-29T15:48:57.357Z,88.77
2022-11-29T15:51:30.360Z,88.78
2022-11-29T15:54:13.479Z,88.78
2022-11-29T15:56:46.792Z,88.96
2022-11-29T15:59:30.689Z,88.60
2022-11-29T16:02:02.536Z,88.70
2022-11-29T16:04:31.409Z,88.91
2022-11-29T16:06:59.318Z,88.91
2022-11-29T16:09:35.556Z,89.37
2022-11-29T16:12:04.153Z,89.61
2022-11-29T16:14:32.157Z,89.53
2022-11-29T16:17:03.330Z,89.64
2022-11-29T16:19:33.310Z,89.54
2022-11-29T16:22:05.029Z,89.68
2022-11-29T16:24:35.078Z,89.57
2022-11-29T16:27:03.219Z,89.51
2022-11-29T16:29:34.872Z,89.30
2022-11-29T16:32:14.303Z,89.39
2022-11-29T16:34:44.530Z,89.55
2022-11-29T16:37:20.007Z,89.55
2022-11-29T16:39:50.996Z,89.63
2022-11-29T16:42:26.079Z,89.51
2022-11-29T16:45:23.539Z,89.46
2022-11-29T16:47:58.035Z,89.69
2022-11-29T16:50:26.725Z,89.90
2022-11-29T16:52:56.875Z,89.85
2022-11-29T16:55:26.392Z,89.55
2022-11-29T16:57:54.250Z,90.11
2022-11-29T17:00:30.896Z,90.01
2022-11-29T17:02:59.075Z,90.17
2022-11-29T17:05:27.303Z,90.16
2022-11-29T17:07:55.556Z,90.14
2022-11-29T17:10:26.571Z,90.31
2022-11-29T17:12:54.336Z,90.54
2022-11-29T17:15:22.182Z,90.49
2022-11-29T17:17:50.273Z,90.56
2022-11-29T17:20:18.253Z,90.57
2022-11-29T17:22:46.082Z,90.83
2022-11-29T17:25:13.983Z,90.62
2022-11-29T17:27:43.082Z,90.79
2022-11-29T17:30:12.240Z,91.46
2022-11-29T17:32:40.084Z,91.13
2022-11-29T17:35:08.399Z,91.02
2022-11-29T17:37:36.322Z,91.26
2022-11-29T17:40:04.329Z,91.19
2022-11-29T17:42:32.096Z,91.67
2022-11-29T17:45:01.520Z,91.87
2022-11-29T17:47:29.168Z,91.87
2022-11-29T17:49:58.091Z,92.13
2022-11-29T17:52:27.441Z,92.06
2022-11-29T17:54:55.082Z,92.06
2022-11-29T17:57:22.862Z,91.96
2022-11-29T17:59:50.744Z,91.68
2022-11-29T18:02:19.949Z,91.49
2022-11-29T18:04:47.695Z,90.80
2022-11-29T18:07:17.136Z,90.64
2022-11-29T18:09:46.691Z,90.65
2022-11-29T18:12:14.862Z,91.12
2022-11-29T18:14:42.724Z,90.73
2022-11-29T18:17:10.644Z,90.95
2022-11-29T18:19:39.854Z,90.99
2022-11-29T18:22:08.378Z,90.63
2022-11-29T18:24:36.288Z,90.70
2022-11-29T18:27:04.242Z,90.79
2022-11-29T18:29:37.633Z,90.95
2022-11-29T18:32:06.918Z,90.93
2022-11-29T18:34:34.793Z,90.88
2022-11-29T18:37:04.067Z,90.84
2022-11-29T18:39:31.910Z,91.02
2022-11-29T18:41:59.756Z,91.00
2022-11-29T18:44:29.475Z,90.89
2022-11-29T18:46:58.456Z,91.12
2022-11-29T18:49:26.364Z,91.04
2022-11-29T18:51:54.224Z,90.80
2022-11-29T18:54:23.487Z,90.58
2022-11-29T18:56:51.951Z,90.66
2022-11-29T18:59:19.851Z,90.54
2022-11-29T19:01:48.867Z,90.70
2022-11-29T19:04:18.640Z,90.66
2022-11-29T19:06:46.526Z,89.93
2022-11-29T19:09:16.071Z,89.76
2022-11-29T19:11:45.372Z,89.79
2022-11-29T19:14:13.320Z,89.83
2022-11-29T19:16:43.411Z,89.77
2022-11-29T19:19:11.878Z,89.16
2022-11-29T19:21:40.698Z,89.46
2022-11-29T19:24:13.790Z,89.73
2022-11-29T19:26:44.490Z,89.73
2022-11-29T19:29:14.765Z,89.81
2022-11-29T19:31:43.116Z,89.73
2022-11-29T19:34:11.179Z,89.80
2022-11-29T19:36:43.010Z,89.92
2022-11-29T19:39:12.803Z,90.22
2022-11-29T19:41:40.820Z,90.51
2022-11-29T19:44:09.493Z,90.76
2022-11-29T19:46:40.996Z,90.88
2022-11-29T19:49:10.191Z,91.01
2022-11-29T19:51:38.524Z,91.32
2022-11-29T19:54:08.487Z,91.59
2022-11-29T19:56:36.801Z,92.81
2022-11-29T19:59:04.671Z,92.76
2022-11-29T20:01:40.088Z,92.67
2022-11-29T20:04:10.643Z,92.15
2022-11-29T20:06:38.936Z,92.32
2022-11-29T20:09:07.532Z,92.97
2022-11-29T20:11:35.474Z,93.54
2022-11-29T20:14:05.219Z,93.28
2022-11-29T20:16:34.261Z,93.59
2022-11-29T20:19:02.713Z,93.52
2022-11-29T20:21:33.766Z,94.09
2022-11-29T20:24:03.179Z,94.02
2022-11-29T20:26:33.399Z,93.51
2022-11-29T20:29:02.061Z,93.11
2022-11-29T20:31:30.749Z,93.20
2022-11-29T20:33:59.036Z,93.57
2022-11-29T20:36:40.742Z,93.70
2022-11-29T20:39:18.405Z,94.13
2022-11-29T20:41:56.053Z,93.99
2022-11-29T20:44:36.031Z,93.99
2022-11-29T20:47:12.828Z,94.04
2022-11-29T20:49:41.128Z,93.53
2022-11-29T20:52:18.887Z,93.76
2022-11-29T20:54:46.741Z,94.38
2022-11-29T20:57:14.791Z,94.69
2022-11-29T20:59:42.749Z,94.44
2022-11-29T21:02:10.626Z,94.21
2022-11-29T21:04:38.515Z,93.72
2022-11-29T21:07:06.374Z,94.22
2022-11-29T21:09:35.561Z,94.12
2022-11-29T21:12:03.888Z,94.95
2022-11-29T21:14:31.955Z,95.55
2022-11-29T21:17:00.538Z,95.88
2022-11-29T21:19:29.257Z,96.23
2022-11-29T21:22:06.050Z,96.06
2022-11-29T21:24:46.008Z,95.81
2022-11-29T21:27:18.689Z,95.43
2022-11-29T21:29:47.079Z,95.62
2022-11-29T21:32:22.276Z,95.65
2022-11-29T21:34:50.415Z,95.19
2022-11-29T21:37:21.137Z,95.35
2022-11-29T21:39:52.189Z,95.13
2022-11-29T21:42:20.528Z,95.36
2022-11-29T21:44:48.925Z,95.26
2022-11-29T21:47:16.992Z,95.57
2022-11-29T21:49:46.314Z,95.32
2022-11-29T21:52:19.039Z,95.68
2022-11-29T21:54:51.383Z,95.29
2022-11-29T21:57:19.278Z,95.23
2022-11-29T21:59:47.174Z,95.45
2022-11-29T22:02:15.273Z,95.71
2022-11-29T22:04:43.187Z,95.61
2022-11-29T22:07:11.181Z,95.50
2022-11-29T22:09:39.044Z,95.56
2022-11-29T22:12:26.219Z,95.35
2022-11-29T22:14:56.286Z,95.48
2022-11-29T22:17:24.113Z,95.27
2022-11-29T22:19:51.995Z,95.11
2022-11-29T22:22:19.980Z,94.94
2022-11-29T22:24:48.037Z,94.87
2022-11-29T22:27:18.589Z,94.84
2022-11-29T22:29:46.701Z,94.34
2022-11-29T22:32:14.792Z,94.50
2022-11-29T22:34:43.001Z,94.38
2022-11-29T22:37:12.422Z,94.35
2022-11-29T22:39:40.096Z,94.24
2022-11-29T22:42:08.338Z,94.39
2022-11-29T22:44:37.583Z,94.02
2022-11-29T22:47:05.595Z,93.81
2022-11-29T22:49:33.974Z,93.90
2022-11-29T22:52:01.784Z,93.43
2022-11-29T22:54:29.678Z,93.12
2022-11-29T22:56:57.523Z,92.82
2022-11-29T22:59:25.619Z,92.35
2022-11-29T23:01:54.875Z,92.55
2022-11-29T23:04:22.840Z,93.15
2022-11-29T23:06:50.661Z,93.14
2022-11-29T23:09:22.096Z,93.37
2022-11-29T23:11:52.012Z,93.03
2022-11-29T23:14:20.339Z,92.90
2022-11-29T23:16:49.177Z,93.04
2022-11-29T23:19:18.771Z,93.04
2022-11-29T23:21:47.221Z,92.86
2022-11-29T23:24:16.017Z,92.64
2022-11-29T23:26:45.715Z,92.33
2022-11-29T23:29:15.805Z,92.54
2022-11-29T23:31:43.894Z,92.61
2022-11-29T23:34:11.841Z,92.83
2022-11-29T23:36:41.076Z,92.91
2022-11-29T23:39:08.952Z,92.39
2022-11-29T23:41:37.326Z,92.56
2022-11-29T23:44:05.702Z,92.89
2022-11-29T23:46:35.346Z,92.86
2022-11-29T23:49:03.165Z,92.79
2022-11-29T23:51:31.172Z,92.50
2022-11-29T23:54:00.375Z,92.35
2022-11-29T23:56:28.237Z,91.57
2022-11-29T23:58:56.147Z,91.89
